createdAt,value
2023-03-06T00:00:56.296Z,61.37
2023-03-06T00:03:27.757Z,61.77
2023-03-06T00:05:57.490Z,61.92
2023-03-06T00:08:27.325Z,66.08
2023-03-06T00:10:56.161Z,67.89
2023-03-06T00:13:24.928Z,61.10
2023-03-06T00:15:52.745Z,54.43
2023-03-06T00:18:21.543Z,52.57
2023-03-06T00:20:49.399Z,53.43
2023-03-06T00:23:17.227Z,54.31
2023-03-06T00:25:45.549Z,55.16
2023-03-06T00:28:14.931Z,55.81
2023-03-06T00:30:43.818Z,56.48
2023-03-06T00:33:12.374Z,57.46
2023-03-06T00:35:41.116Z,58.21
2023-03-06T00:38:11.937Z,58.88
2023-03-06T00:40:39.867Z,59.12
2023-03-06T00:43:08.506Z,59.70
2023-03-06T00:45:37.346Z,60.18
2023-03-06T00:48:05.878Z,60.54
2023-03-06T00:50:35.289Z,60.90
2023-03-06T00:53:03.563Z,61.12
2023-03-06T00:55:33.388Z,61.37
2023-03-06T00:58:01.239Z,61.66
2023-03-06T01:00:29.174Z,62.24
2023-03-06T01:02:56.996Z,66.41
2023-03-06T01:05:24.972Z,67.17
2023-03-06T01:07:52.937Z,62.26
2023-03-06T01:10:20.937Z,56.29
2023-03-06T01:12:48.976Z,54.04
2023-03-06T01:15:16.902Z,55.08
2023-03-06T01:17:44.780Z,56.17
2023-03-06T01:20:15.342Z,56.98
2023-03-06T01:22:43.320Z,57.55
2023-03-06T01:25:11.504Z,58.28
2023-03-06T01:27:40.732Z,59.19
2023-03-06T01:30:12.572Z,59.42
2023-03-06T01:32:40.835Z,60.15
2023-03-06T01:35:09.178Z,60.48
2023-03-06T01:37:37.508Z,60.77
2023-03-06T01:40:06.507Z,61.04
2023-03-06T01:42:34.459Z,61.22
2023-03-06T01:45:09.155Z,61.95
2023-03-06T01:47:37.074Z,66.71
2023-03-06T01:50:08.790Z,67.29
2023-03-06T01:52:43.735Z,63.11
2023-03-06T01:55:23.539Z,56.13
2023-03-06T01:57:54.858Z,53.87
2023-03-06T02:00:25.194Z,54.82
2023-03-06T02:03:06.871Z,55.87
2023-03-06T02:05:37.784Z,56.45
2023-03-06T02:08:07.004Z,57.18
2023-03-06T02:10:35.260Z,57.90
2023-03-06T02:13:03.441Z,58.43
2023-03-06T02:15:31.354Z,59.05
2023-03-06T02:18:00.219Z,59.64
2023-03-06T02:20:39.302Z,60.32
2023-03-06T02:23:15.127Z,60.85
2023-03-06T02:25:43.202Z,61.16
2023-03-06T02:28:13.714Z,61.61
2023-03-06T02:30:42.871Z,61.89
2023-03-06T02:33:15.823Z,65.27
2023-03-06T02:35:56.779Z,68.21
2023-03-06T02:38:29.372Z,62.70
2023-03-06T02:40:58.204Z,56.86
2023-03-06T02:43:34.023Z,55.16
2023-03-06T02:46:03.351Z,56.09
2023-03-06T02:48:31.643Z,56.69
2023-03-06T02:50:59.400Z,57.15
2023-03-06T02:53:27.268Z,57.63
2023-03-06T02:55:55.088Z,58.36
2023-03-06T02:58:22.882Z,59.21
2023-03-06T03:00:50.894Z,59.74
2023-03-06T03:03:19.439Z,60.69
2023-03-06T03:05:47.185Z,61.18
2023-03-06T03:08:28.327Z,61.83
2023-03-06T03:10:59.121Z,66.18
2023-03-06T03:13:28.503Z,68.28
2023-03-06T03:16:08.788Z,63.87
2023-03-06T03:18:36.794Z,60.06
2023-03-06T03:21:11.603Z,55.63
2023-03-06T03:23:39.844Z,54.45
2023-03-06T03:26:14.063Z,55.50
2023-03-06T03:28:45.364Z,56.11
2023-03-06T03:31:14.486Z,57.20
2023-03-06T03:33:42.895Z,58.16
2023-03-06T03:36:10.828Z,58.67
2023-03-06T03:38:41.844Z,59.40
2023-03-06T03:41:09.749Z,60.02
2023-03-06T03:43:37.645Z,60.40
2023-03-06T03:46:06.298Z,61.33
2023-03-06T03:48:35.065Z,62.00
2023-03-06T03:51:11.351Z,66.55
2023-03-06T03:53:41.753Z,68.61
2023-03-06T03:56:11.501Z,63.73
2023-03-06T03:58:46.194Z,60.07
2023-03-06T04:01:14.209Z,55.71
2023-03-06T04:03:42.195Z,54.23
2023-03-06T04:06:10.384Z,55.14
2023-03-06T04:08:38.781Z,56.19
2023-03-06T04:11:06.910Z,57.51
2023-03-06T04:13:35.063Z,58.15
2023-03-06T04:16:04.560Z,58.93
2023-03-06T04:18:33.408Z,60.15
2023-03-06T04:21:04.679Z,61.02
2023-03-06T04:23:32.670Z,61.80
2023-03-06T04:26:00.928Z,64.82
2023-03-06T04:28:29.083Z,67.83
2023-03-06T04:30:57.722Z,64.13
2023-03-06T04:33:25.652Z,61.66
2023-03-06T04:35:54.763Z,57.66
2023-03-06T04:38:25.834Z,56.32
2023-03-06T04:40:53.667Z,57.89
2023-03-06T04:43:21.836Z,59.01
2023-03-06T04:45:49.832Z,60.27
2023-03-06T04:48:18.494Z,60.81
2023-03-06T04:50:46.845Z,64.11
2023-03-06T04:53:16.609Z,67.69
2023-03-06T04:55:44.423Z,64.04
2023-03-06T04:58:13.991Z,58.64
2023-03-06T05:00:42.079Z,56.59
2023-03-06T05:03:10.500Z,57.17
2023-03-06T05:05:38.276Z,58.50
2023-03-06T05:08:06.605Z,60.36
2023-03-06T05:10:34.506Z,61.35
2023-03-06T05:13:02.203Z,61.63
2023-03-06T05:15:30.061Z,65.05
2023-03-06T05:17:57.858Z,68.54
2023-03-06T05:20:25.666Z,64.30
2023-03-06T05:22:53.408Z,60.44
2023-03-06T05:25:21.146Z,56.73
2023-03-06T05:27:49.159Z,56.53
2023-03-06T05:30:17.099Z,57.62
2023-03-06T05:32:44.875Z,59.49
2023-03-06T05:35:20.701Z,60.98
2023-03-06T05:37:48.951Z,65.44
2023-03-06T05:40:17.830Z,66.31
2023-03-06T05:42:45.650Z,61.50
2023-03-06T05:45:13.447Z,60.33
2023-03-06T05:47:41.271Z,57.10
2023-03-06T05:50:10.602Z,56.48
2023-03-06T05:52:39.892Z,58.05
2023-03-06T05:55:08.468Z,60.71
2023-03-06T05:57:36.298Z,62.27
2023-03-06T06:00:05.069Z,64.94
2023-03-06T06:02:41.268Z,63.14
2023-03-06T06:05:12.784Z,60.04
2023-03-06T06:07:41.482Z,55.89
2023-03-06T06:10:11.343Z,56.21
2023-03-06T06:12:39.113Z,56.90
2023-03-06T06:15:07.457Z,58.22
2023-03-06T06:17:35.255Z,60.12
2023-03-06T06:20:03.822Z,60.34
2023-03-06T06:22:31.713Z,64.41
2023-03-06T06:24:59.718Z,66.98
2023-03-06T06:27:27.546Z,62.16
2023-03-06T06:29:55.349Z,56.73
2023-03-06T06:32:23.122Z,55.48
2023-03-06T06:34:50.889Z,57.01
2023-03-06T06:37:18.857Z,59.63
2023-03-06T06:39:46.603Z,60.19
2023-03-06T06:42:31.499Z,63.25
2023-03-06T06:45:03.474Z,63.89
2023-03-06T06:47:32.007Z,58.31
2023-03-06T06:50:00.172Z,56.40
2023-03-06T06:52:27.989Z,58.78
2023-03-06T06:55:02.515Z,58.84
2023-03-06T06:57:30.395Z,60.14
2023-03-06T06:59:58.314Z,61.19
2023-03-06T07:02:26.055Z,61.06
2023-03-06T07:05:03.619Z,63.65
2023-03-06T07:07:38.013Z,63.27
2023-03-06T07:10:08.754Z,57.84
2023-03-06T07:12:37.082Z,56.45
2023-03-06T07:15:06.252Z,56.38
2023-03-06T07:17:34.174Z,57.50
2023-03-06T07:20:02.174Z,58.77
2023-03-06T07:22:35.877Z,60.54
2023-03-06T07:25:09.982Z,60.62
2023-03-06T07:27:37.889Z,62.65
2023-03-06T07:30:06.329Z,66.38
2023-03-06T07:32:34.232Z,62.84
2023-03-06T07:35:19.119Z,57.32
2023-03-06T07:37:47.761Z,54.34
2023-03-06T07:40:15.549Z,54.82
2023-03-06T07:42:43.592Z,55.47
2023-03-06T07:45:13.621Z,57.27
2023-03-06T07:47:41.630Z,58.15
2023-03-06T07:50:10.166Z,58.49
2023-03-06T07:52:38.012Z,59.74
2023-03-06T07:55:06.302Z,61.00
2023-03-06T07:57:34.096Z,61.40
2023-03-06T08:00:02.361Z,60.71
2023-03-06T08:02:30.117Z,60.93
2023-03-06T08:04:57.910Z,61.64
2023-03-06T08:07:25.824Z,64.56
2023-03-06T08:09:53.567Z,65.21
2023-03-06T08:12:21.420Z,60.79
2023-03-06T08:14:49.192Z,55.08
2023-03-06T08:17:17.030Z,51.97
2023-03-06T08:19:44.798Z,54.59
2023-03-06T08:22:14.096Z,54.47
2023-03-06T08:24:42.007Z,55.34
2023-03-06T08:27:09.788Z,55.58
2023-03-06T08:29:37.679Z,55.86
2023-03-06T08:32:05.873Z,55.99
2023-03-06T08:34:33.628Z,57.47
2023-03-06T08:37:01.466Z,57.33
2023-03-06T08:39:29.196Z,57.41
2023-03-06T08:41:56.953Z,57.65
2023-03-06T08:44:24.781Z,57.64
2023-03-06T08:46:52.572Z,57.40
2023-03-06T08:49:20.490Z,57.47
2023-03-06T08:51:48.295Z,57.59
2023-03-06T08:54:16.117Z,57.06
2023-03-06T08:56:43.970Z,57.66
2023-03-06T08:59:13.510Z,57.99
2023-03-06T14:03:09.008Z,68.82
2023-03-06T14:06:24.735Z,71.36
2023-03-06T14:08:56.432Z,63.23
2023-03-06T14:11:24.747Z,56.22
2023-03-06T14:13:55.569Z,53.46
2023-03-06T14:16:25.930Z,53.27
2023-03-06T14:18:56.139Z,53.92
2023-03-06T14:21:40.383Z,54.82
2023-03-06T14:24:15.752Z,55.29
2023-03-06T14:26:51.411Z,54.85
2023-03-06T14:29:24.698Z,55.33
2023-03-06T14:31:57.375Z,54.84
2023-03-06T14:34:30.548Z,54.46
2023-03-06T14:37:01.409Z,54.48
2023-03-06T14:39:40.833Z,54.78
2023-03-06T14:42:20.840Z,55.46
2023-03-06T14:45:00.610Z,55.25
2023-03-06T14:47:30.896Z,56.32
2023-03-06T14:50:18.529Z,56.72
2023-03-06T14:52:46.548Z,56.56
2023-03-06T14:55:19.785Z,56.72
2023-03-06T14:57:51.395Z,57.15
2023-03-06T15:00:21.573Z,57.29
2023-03-06T15:02:51.650Z,56.91
2023-03-06T15:05:26.549Z,57.07
2023-03-06T15:07:57.922Z,56.98
2023-03-06T15:10:32.227Z,57.05
2023-03-06T15:13:20.156Z,57.76
2023-03-06T15:16:05.532Z,57.10
2023-03-06T15:18:38.867Z,57.58
2023-03-06T15:21:10.545Z,57.49
2023-03-06T15:23:44.233Z,57.38
2023-03-06T15:26:36.923Z,57.43
2023-03-06T15:29:21.222Z,57.48
2023-03-06T15:31:49.413Z,57.41
2023-03-06T15:34:25.151Z,57.23
2023-03-06T15:36:57.742Z,57.54
2023-03-06T15:39:32.762Z,57.53
2023-03-06T15:42:08.987Z,57.02
2023-03-06T15:44:36.818Z,57.04
2023-03-06T15:47:11.562Z,56.43
2023-03-06T15:49:39.727Z,55.17
2023-03-06T15:52:08.102Z,55.76
2023-03-06T15:54:36.018Z,55.55
2023-03-06T15:57:08.472Z,56.24
2023-03-06T15:59:41.984Z,56.05
2023-03-06T16:02:20.827Z,56.52
2023-03-06T16:04:49.421Z,56.63
2023-03-06T16:07:17.700Z,56.74
2023-03-06T16:09:45.820Z,56.76
2023-03-06T16:12:15.165Z,57.48
2023-03-06T16:14:43.926Z,57.34
2023-03-06T16:17:12.598Z,57.77
2023-03-06T16:19:40.459Z,57.88
2023-03-06T16:22:08.466Z,58.08
2023-03-06T16:24:37.353Z,58.43
2023-03-06T16:27:05.523Z,58.58
2023-03-06T16:29:33.635Z,58.83
2023-03-06T16:32:02.240Z,58.71
2023-03-06T16:34:30.422Z,58.87
2023-03-06T16:36:58.197Z,59.04
2023-03-06T16:39:26.065Z,59.10
2023-03-06T16:41:53.979Z,59.47
2023-03-06T16:44:21.766Z,59.51
2023-03-06T16:46:50.578Z,59.72
2023-03-06T16:49:25.013Z,59.80
2023-03-06T16:51:53.385Z,60.23
2023-03-06T16:54:23.247Z,60.50
2023-03-06T16:56:51.029Z,60.77
2023-03-06T16:59:19.199Z,60.77
2023-03-06T17:01:47.245Z,61.12
2023-03-06T17:04:15.192Z,60.97
2023-03-06T17:06:43.465Z,61.07
2023-03-06T17:09:11.838Z,61.08
2023-03-06T17:11:42.711Z,61.28
2023-03-06T17:14:11.024Z,61.35
2023-03-06T17:16:40.506Z,61.64
2023-03-06T17:19:08.742Z,61.69
2023-03-06T17:21:38.642Z,61.92
2023-03-06T17:24:06.896Z,61.94
2023-03-06T17:26:38.200Z,62.04
2023-03-06T17:29:07.196Z,64.09
2023-03-06T17:31:35.552Z,68.84
2023-03-06T17:34:03.356Z,65.00
2023-03-06T17:36:31.901Z,59.93
2023-03-06T17:39:02.064Z,54.15
2023-03-06T17:41:32.872Z,51.21
2023-03-06T17:44:01.887Z,51.80
2023-03-06T17:46:32.215Z,52.59
2023-03-06T17:49:00.514Z,53.88
2023-03-06T17:51:28.643Z,54.70
2023-03-06T17:53:57.389Z,55.25
2023-03-06T17:56:25.999Z,56.38
2023-03-06T17:58:53.829Z,56.81
2023-03-06T18:01:23.780Z,57.27
2023-03-06T18:03:51.658Z,57.87
2023-03-06T18:06:21.009Z,58.72
2023-03-06T18:08:52.616Z,58.91
2023-03-06T18:11:21.225Z,59.49
2023-03-06T18:13:49.616Z,60.43
2023-03-06T18:16:20.933Z,60.65
2023-03-06T18:18:55.133Z,61.04
2023-03-06T18:21:24.330Z,61.76
2023-03-06T18:23:55.311Z,65.20
2023-03-06T18:26:29.665Z,69.33
2023-03-06T18:29:01.431Z,63.46
2023-03-06T18:31:35.189Z,55.90
2023-03-06T18:34:06.568Z,53.36
2023-03-06T18:36:35.608Z,54.08
2023-03-06T18:39:05.981Z,55.21
2023-03-06T18:41:34.015Z,55.99
2023-03-06T18:44:02.553Z,57.37
2023-03-06T18:46:39.822Z,57.94
2023-03-06T18:49:07.783Z,58.70
2023-03-06T18:51:38.183Z,59.35
2023-03-06T18:54:06.798Z,60.68
2023-03-06T18:56:35.332Z,61.13
2023-03-06T18:59:04.790Z,61.79
2023-03-06T19:01:33.710Z,63.35
2023-03-06T19:04:03.074Z,66.89
2023-03-06T19:06:31.389Z,63.06
2023-03-06T19:09:01.446Z,55.52
2023-03-06T19:11:29.911Z,53.94
2023-03-06T19:13:58.294Z,54.71
2023-03-06T19:16:28.602Z,55.37
2023-03-06T19:18:57.576Z,57.58
2023-03-06T19:21:26.854Z,57.79
2023-03-06T19:23:55.979Z,59.52
2023-03-06T19:26:24.015Z,59.33
2023-03-06T19:28:52.528Z,60.27
2023-03-06T19:31:25.052Z,60.74
2023-03-06T19:33:54.404Z,61.14
2023-03-06T19:36:26.750Z,64.63
2023-03-06T19:38:55.749Z,67.69
2023-03-06T19:41:24.154Z,62.88
2023-03-06T19:43:54.233Z,54.77
2023-03-06T19:46:23.393Z,53.16
2023-03-06T19:49:02.969Z,54.08
2023-03-06T19:51:30.813Z,55.25
2023-03-06T19:53:59.404Z,55.93
2023-03-06T19:56:29.047Z,56.90
2023-03-06T19:58:57.375Z,57.89
2023-03-06T20:01:26.682Z,58.75
2023-03-06T20:03:59.191Z,59.75
2023-03-06T20:06:31.142Z,60.25
2023-03-06T20:09:00.378Z,60.99
2023-03-06T20:11:32.559Z,61.79
2023-03-06T20:14:01.516Z,66.45
2023-03-06T20:16:30.529Z,68.67
2023-03-06T20:19:00.486Z,60.70
2023-03-06T20:21:30.366Z,54.74
2023-03-06T20:23:58.310Z,53.86
2023-03-06T20:26:28.453Z,54.83
2023-03-06T20:28:57.104Z,55.73
2023-03-06T20:31:27.301Z,56.34
2023-03-06T20:33:57.518Z,56.77
2023-03-06T20:36:30.621Z,57.71
2023-03-06T20:38:59.840Z,58.49
2023-03-06T20:41:29.049Z,59.06
2023-03-06T20:43:58.760Z,59.72
2023-03-06T20:46:26.602Z,60.19
2023-03-06T20:48:54.792Z,60.63
2023-03-06T20:51:31.723Z,61.34
2023-03-06T20:54:01.172Z,61.36
2023-03-06T20:56:33.868Z,61.67
2023-03-06T20:59:01.922Z,65.61
2023-03-06T21:01:35.032Z,67.97
2023-03-06T21:04:04.550Z,61.56
2023-03-06T21:06:32.917Z,55.29
2023-03-06T21:09:01.259Z,53.28
2023-03-06T21:11:29.691Z,54.41
2023-03-06T21:13:57.596Z,55.84
2023-03-06T21:16:28.156Z,56.53
2023-03-06T21:18:57.646Z,56.68
2023-03-06T21:21:29.225Z,57.04
2023-03-06T21:23:57.700Z,57.93
2023-03-06T21:26:28.081Z,58.46
2023-03-06T21:28:58.148Z,59.19
2023-03-06T21:31:27.118Z,59.69
2023-03-06T21:33:55.649Z,60.50
2023-03-06T21:36:23.516Z,61.49
2023-03-06T21:38:52.421Z,61.65
2023-03-06T21:41:24.791Z,61.62
2023-03-06T21:44:00.888Z,61.63
2023-03-06T21:46:29.018Z,61.90
2023-03-06T21:48:57.212Z,65.45
2023-03-06T21:51:26.269Z,68.24
2023-03-06T21:53:55.424Z,63.18
2023-03-06T21:56:25.440Z,59.69
2023-03-06T21:58:53.454Z,55.04
2023-03-06T22:01:24.039Z,55.59
2023-03-06T22:03:52.211Z,56.44
2023-03-06T22:06:25.394Z,57.61
2023-03-06T22:08:55.061Z,57.96
2023-03-06T22:11:25.633Z,58.43
2023-03-06T22:13:53.467Z,59.09
2023-03-06T22:16:21.418Z,60.21
2023-03-06T22:18:51.477Z,60.49
2023-03-06T22:21:21.493Z,61.40
2023-03-06T22:23:54.280Z,61.61
2023-03-06T22:26:22.179Z,65.62
2023-03-06T22:28:50.299Z,67.78
2023-03-06T22:31:26.332Z,63.43
2023-03-06T22:33:55.280Z,57.21
2023-03-06T22:36:24.009Z,54.33
2023-03-06T22:38:57.216Z,54.52
2023-03-06T22:41:28.264Z,55.62
2023-03-06T22:43:57.138Z,56.59
2023-03-06T22:46:25.554Z,57.59
2023-03-06T22:48:55.921Z,58.35
2023-03-06T22:51:23.696Z,58.80
2023-03-06T22:53:51.531Z,59.13
2023-03-06T22:56:20.826Z,59.96
2023-03-06T22:58:48.996Z,60.17
2023-03-06T23:01:18.010Z,60.93
2023-03-06T23:03:51.401Z,61.20
2023-03-06T23:06:24.677Z,65.92
2023-03-06T23:09:01.820Z,66.96
2023-03-06T23:11:30.277Z,61.79
2023-03-06T23:14:17.974Z,54.88
2023-03-06T23:17:04.824Z,53.56
2023-03-06T23:19:51.730Z,55.09
2023-03-06T23:22:38.092Z,55.55
2023-03-06T23:25:24.899Z,56.62
2023-03-06T23:27:52.674Z,58.36
2023-03-06T23:30:20.525Z,58.83
2023-03-06T23:32:48.315Z,59.44
2023-03-06T23:35:16.181Z,59.87
2023-03-06T23:37:44.041Z,60.08
2023-03-06T23:40:13.735Z,60.47
2023-03-06T23:42:41.466Z,61.23
2023-03-06T23:45:10.012Z,61.31
2023-03-06T23:47:37.750Z,61.88
2023-03-06T23:50:06.432Z,65.62
2023-03-06T23:52:34.311Z,67.35
2023-03-06T23:55:02.066Z,61.04
2023-03-06T23:57:30.684Z,54.48
2023-03-06T23:59:58.522Z,52.95
